Time;durP1;ratioP1;P1;durP2;ratioP2;P2;SDS_P1;SDS_P2;PMS_P1;PMS_P2;Temp;Humidity;BMP_temperature;BMP_pressure;BME280_temperature;BME280_humidity;BME280_pressure;Samples;Min_cycle;Max_cycle;Signal;HPM_P1;HPM_P2
2023/09/06 00:01:09;;;;;;;;;18.33;18.33;;;;;;;;5096135;27;46718;-71
2023/09/06 00:03:36;;;;;;;;;17.00;14.67;;;;;;;;5095579;27;46149;-71
2023/09/06 00:06:03;;;;;;;;;20.67;18.33;;;;;;;;5083757;27;45697;-71
2023/09/06 00:08:28;;;;;;;;;19.00;16.00;;;;;;;;5093428;27;45477;-70
2023/09/06 00:10:53;;;;;;;;;18.00;15.33;;;;;;;;5096323;27;45882;-73
2023/09/06 00:13:20;;;;;;;;;16.33;15.33;;;;;;;;5095362;27;45645;-71
2023/09/06 00:15:49;;;;;;;;;19.00;17.00;;;;;;;;5095089;27;45850;-72
2023/09/06 00:18:14;;;;;;;;;22.33;17.33;;;;;;;;5076713;27;45397;-72
2023/09/06 00:20:40;;;;;;;;;16.67;14.67;;;;;;;;5094623;27;45519;-71
2023/09/06 00:23:08;;;;;;;;;15.67;14.67;;;;;;;;5092167;27;46051;-70
2023/09/06 00:25:34;;;;;;;;;17.67;16.00;;;;;;;;5081511;27;45641;-71
2023/09/06 00:28:01;;;;;;;;;14.33;12.67;;;;;;;;5088774;27;45710;-72
2023/09/06 00:30:26;;;;;;;;;13.00;12.67;;;;;;;;5078432;27;45815;-73
2023/09/06 00:32:55;;;;;;;;;16.67;15.67;;;;;;;;5086548;27;45426;-72
2023/09/06 00:35:20;;;;;;;;;15.33;13.67;;;;;;;;5085072;27;45395;-71
2023/09/06 00:37:46;;;;;;;;;17.67;14.33;;;;;;;;5084633;27;45378;-71
2023/09/06 00:40:14;;;;;;;;;16.33;15.33;;;;;;;;5090539;27;45706;-72
2023/09/06 00:42:39;;;;;;;;;18.00;15.33;;;;;;;;5088861;27;46355;-72
2023/09/06 00:45:05;;;;;;;;;21.67;16.00;;;;;;;;5086448;27;45713;-71
2023/09/06 00:47:30;;;;;;;;;19.00;16.00;;;;;;;;5085600;27;45717;-71
2023/09/06 00:49:55;;;;;;;;;12.67;11.67;;;;;;;;5082098;27;45519;-71
2023/09/06 00:52:21;;;;;;;;;11.00;11.00;;;;;;;;5067772;27;45774;-70
2023/09/06 00:54:46;;;;;;;;;15.67;15.67;;;;;;;;5092168;27;45666;-70
2023/09/06 00:57:12;;;;;;;;;14.00;14.00;;;;;;;;5092890;27;46082;-69
2023/09/06 00:59:38;;;;;;;;;18.67;14.33;;;;;;;;5093248;27;45722;-70
2023/09/06 01:02:03;;;;;;;;;17.33;17.33;;;;;;;;5073783;27;47015;-70
2023/09/06 01:04:29;;;;;;;;;29.00;29.00;;;;;;;;5081252;27;45814;-70
2023/09/06 01:06:55;;;;;;;;;16.67;13.67;;;;;;;;5075673;27;45736;-70
2023/09/06 01:09:21;;;;;;;;;15.33;14.33;;;;;;;;5092834;27;45665;-70
2023/09/06 01:11:47;;;;;;;;;16.33;12.67;;;;;;;;5071257;27;45498;-70
2023/09/06 01:14:12;;;;;;;;;22.33;17.67;;;;;;;;5093235;27;45291;-70
2023/09/06 01:16:39;;;;;;;;;18.33;17.33;;;;;;;;5072166;27;45667;-71
2023/09/06 01:19:05;;;;;;;;;17.33;13.67;;;;;;;;5065196;27;47171;-71
2023/09/06 01:21:49;;;;;;;;;18.33;13.33;;;;;;;;5075051;27;48350;-69
2023/09/06 01:24:15;;;;;;;;;19.00;16.33;;;;;;;;5076573;27;45677;-71
2023/09/06 01:26:41;;;;;;;;;15.00;13.33;;;;;;;;5093953;27;45407;-70
2023/09/06 01:29:07;;;;;;;;;13.67;12.33;;;;;;;;5090772;27;45793;-70
2023/09/06 01:31:32;;;;;;;;;14.67;13.33;;;;;;;;5090305;27;45641;-76
2023/09/06 01:33:57;;;;;;;;;17.33;13.33;;;;;;;;5094243;27;45382;-69
2023/09/06 01:36:23;;;;;;;;;15.67;13.67;;;;;;;;5075564;27;45756;-69
2023/09/06 01:38:51;;;;;;;;;12.67;11.67;;;;;;;;5060727;27;45859;-76
2023/09/06 01:41:28;;;;;;;;;15.33;11.33;;;;;;;;5090266;27;45632;-78
2023/09/06 01:43:54;;;;;;;;;16.67;14.67;;;;;;;;5086267;27;46006;-76
2023/09/06 01:46:19;;;;;;;;;16.00;14.33;;;;;;;;5094145;27;45701;-76
2023/09/06 01:48:46;;;;;;;;;17.00;14.00;;;;;;;;5092566;27;45718;-76
2023/09/06 01:51:13;;;;;;;;;16.33;15.00;;;;;;;;5087595;27;47288;-76
2023/09/06 01:53:38;;;;;;;;;14.00;12.33;;;;;;;;5087263;27;45771;-77
2023/09/06 01:56:04;;;;;;;;;12.00;12.00;;;;;;;;5086460;27;45842;-77
2023/09/06 01:58:42;;;;;;;;;15.00;12.00;;;;;;;;5089533;27;45607;-78
2023/09/06 02:01:08;;;;;;;;;14.00;12.67;;;;;;;;5074921;27;46429;-76
2023/09/06 02:03:33;;;;;;;;;21.00;15.67;;;;;;;;5075117;27;45490;-75
2023/09/06 02:06:03;;;;;;;;;16.00;16.00;;;;;;;;5075143;27;45318;-75
2023/09/06 02:08:28;;;;;;;;;17.33;16.33;;;;;;;;5061099;27;46063;-75
2023/09/06 02:10:53;;;;;;;;;19.33;18.00;;;;;;;;5084700;27;45529;-75
2023/09/06 02:13:19;;;;;;;;;14.33;13.00;;;;;;;;5058810;28;45675;-76
2023/09/06 02:15:44;;;;;;;;;15.00;13.33;;;;;;;;5091902;27;45329;-76
2023/09/06 02:18:15;;;;;;;;;16.67;14.33;;;;;;;;5094269;27;45417;-76
2023/09/06 02:20:40;;;;;;;;;14.33;14.33;;;;;;;;5070968;27;45376;-74
2023/09/06 02:23:06;;;;;;;;;16.33;15.33;;;;;;;;5090385;27;45760;-73
2023/09/06 02:25:31;;;;;;;;;14.33;12.67;;;;;;;;5075074;27;45459;-75
2023/09/06 02:28:04;;;;;;;;;18.67;16.00;;;;;;;;5093262;27;45759;-76
2023/09/06 02:30:29;;;;;;;;;14.33;14.33;;;;;;;;5086795;27;45574;-75
2023/09/06 02:32:55;;;;;;;;;19.00;17.00;;;;;;;;5077872;27;45370;-75
2023/09/06 02:35:20;;;;;;;;;16.00;15.67;;;;;;;;5086584;27;45294;-76
2023/09/06 02:37:45;;;;;;;;;14.67;12.00;;;;;;;;5066903;27;46342;-75
2023/09/06 02:40:13;;;;;;;;;17.33;14.67;;;;;;;;5093284;27;46699;-77
2023/09/06 02:42:39;;;;;;;;;29.00;27.33;;;;;;;;5093548;27;45758;-76
2023/09/06 02:45:07;;;;;;;;;16.67;14.33;;;;;;;;5093744;27;45484;-75
2023/09/06 02:47:34;;;;;;;;;16.67;12.00;;;;;;;;5085375;27;46351;-76
2023/09/06 02:49:59;;;;;;;;;17.00;17.00;;;;;;;;5091284;27;45827;-75
2023/09/06 02:52:30;;;;;;;;;15.67;15.00;;;;;;;;5090823;27;45770;-75
2023/09/06 02:55:05;;;;;;;;;20.67;16.67;;;;;;;;5081022;27;45729;-74
2023/09/06 02:57:30;;;;;;;;;20.00;17.67;;;;;;;;5091616;27;45784;-75
2023/09/06 02:59:56;;;;;;;;;17.67;15.67;;;;;;;;5090240;27;46007;-76
2023/09/06 03:02:22;;;;;;;;;18.67;15.67;;;;;;;;5085437;27;45532;-76
2023/09/06 03:04:51;;;;;;;;;14.33;12.67;;;;;;;;5106199;22;45489;-82
2023/09/06 03:07:18;;;;;;;;;16.67;16.33;;;;;;;;5090975;27;46649;-82
2023/09/06 03:09:44;;;;;;;;;15.00;15.00;;;;;;;;5094383;27;46969;-85
2023/09/06 03:12:14;;;;;;;;;16.00;13.00;;;;;;;;5085475;27;45930;-84
2023/09/06 03:14:44;;;;;;;;;18.33;16.00;;;;;;;;5084636;27;45412;-83
2023/09/06 03:17:13;;;;;;;;;14.67;14.00;;;;;;;;5083384;27;45884;-81
2023/09/06 03:19:40;;;;;;;;;13.00;13.00;;;;;;;;5112093;27;45722;-83
2023/09/06 03:22:09;;;;;;;;;16.00;11.00;;;;;;;;5098911;27;45399;-82
2023/09/06 03:24:34;;;;;;;;;15.67;14.33;;;;;;;;5089991;27;45825;-82
2023/09/06 03:27:00;;;;;;;;;16.67;14.33;;;;;;;;5099188;27;45578;-83
2023/09/06 03:29:41;;;;;;;;;15.00;12.00;;;;;;;;5100405;27;45866;-82
2023/09/06 03:32:10;;;;;;;;;16.33;15.67;;;;;;;;5099065;27;45689;-83
2023/09/06 03:34:40;;;;;;;;;12.67;12.33;;;;;;;;5119173;27;45447;-83
2023/09/06 03:37:08;;;;;;;;;17.33;15.33;;;;;;;;5097480;27;46280;-84
2023/09/06 03:39:41;;;;;;;;;16.33;14.00;;;;;;;;5115491;27;46839;-84
2023/09/06 03:42:09;;;;;;;;;18.00;15.33;;;;;;;;5129976;27;45894;-85
2023/09/06 03:44:38;;;;;;;;;16.00;15.67;;;;;;;;5128408;27;45404;-84
2023/09/06 03:47:13;;;;;;;;;17.00;17.00;;;;;;;;5118111;27;45649;-81
2023/09/06 03:49:39;;;;;;;;;12.00;12.00;;;;;;;;5110399;27;46419;-83
2023/09/06 03:52:05;;;;;;;;;13.67;12.00;;;;;;;;5098879;27;45712;-82
2023/09/06 03:54:33;;;;;;;;;17.33;16.00;;;;;;;;5119402;27;45522;-85
2023/09/06 03:56:59;;;;;;;;;11.00;11.00;;;;;;;;5095204;27;45896;-82
2023/09/06 03:59:24;;;;;;;;;16.33;13.33;;;;;;;;5080970;27;45544;-83
2023/09/06 04:01:51;;;;;;;;;17.00;14.00;;;;;;;;5095867;27;45846;-83
2023/09/06 04:04:17;;;;;;;;;17.67;14.67;;;;;;;;5099419;27;45732;-84
2023/09/06 04:06:45;;;;;;;;;13.67;13.33;;;;;;;;5104526;27;46396;-83
2023/09/06 04:09:13;;;;;;;;;12.33;10.67;;;;;;;;5119255;27;45578;-83
2023/09/06 04:11:41;;;;;;;;;19.33;16.33;;;;;;;;5096804;27;45901;-82
2023/09/06 04:14:07;;;;;;;;;16.33;16.33;;;;;;;;5086640;27;45421;-83
2023/09/06 04:16:34;;;;;;;;;21.00;16.00;;;;;;;;5090273;27;46915;-83
2023/09/06 04:19:01;;;;;;;;;16.33;11.67;;;;;;;;5095692;27;48121;-83
2023/09/06 04:21:26;;;;;;;;;13.33;13.33;;;;;;;;5096234;27;45432;-83
2023/09/06 04:24:08;;;;;;;;;18.00;15.00;;;;;;;;5123601;27;45361;-89
2023/09/06 04:26:43;;;;;;;;;16.33;14.67;;;;;;;;5106751;27;46652;-86
2023/09/06 04:29:10;;;;;;;;;24.67;22.67;;;;;;;;5111685;27;45951;-87
2023/09/06 04:31:35;;;;;;;;;18.33;16.67;;;;;;;;5097037;27;45318;-84
2023/09/06 04:34:02;;;;;;;;;30.33;26.33;;;;;;;;5119069;27;45419;-83
2023/09/06 04:36:27;;;;;;;;;17.33;14.67;;;;;;;;5116533;27;45526;-83
2023/09/06 04:38:53;;;;;;;;;14.33;12.67;;;;;;;;5097591;27;46764;-82
2023/09/06 04:41:18;;;;;;;;;19.33;18.00;;;;;;;;5117458;27;45569;-81
2023/09/06 04:43:44;;;;;;;;;46.00;35.67;;;;;;;;5118730;27;45896;-85
2023/09/06 04:46:10;;;;;;;;;22.33;19.33;;;;;;;;5092692;27;45765;-84
2023/09/06 04:48:44;;;;;;;;;24.00;19.33;;;;;;;;5118002;27;46759;-83
2023/09/06 04:51:10;;;;;;;;;17.67;17.00;;;;;;;;5097929;27;45846;-82
2023/09/06 04:53:35;;;;;;;;;19.33;18.33;;;;;;;;5113053;27;45543;-87
2023/09/06 04:56:07;;;;;;;;;21.67;15.33;;;;;;;;5110545;27;45213;-86
2023/09/06 04:58:33;;;;;;;;;16.67;15.67;;;;;;;;5105721;27;45502;-89
2023/09/06 05:01:02;;;;;;;;;19.33;15.00;;;;;;;;5110162;27;45753;-89
2023/09/06 05:03:28;;;;;;;;;15.00;15.00;;;;;;;;5130113;27;45315;-88
2023/09/06 05:06:00;;;;;;;;;20.50;16.00;;;;;;;;5115711;27;45393;-86
2023/09/06 05:08:27;;;;;;;;;17.00;17.00;;;;;;;;5115469;27;47240;-89
2023/09/06 05:11:17;;;;;;;;;24.67;21.00;;;;;;;;5123186;27;45422;-88
2023/09/06 05:13:43;;;;;;;;;28.67;24.67;;;;;;;;5135905;27;44764;-86
2023/09/06 05:16:11;;;;;;;;;25.33;22.00;;;;;;;;5112860;27;45534;-85
2023/09/06 05:18:40;;;;;;;;;19.67;17.67;;;;;;;;5121966;27;45240;-86
2023/09/06 05:21:06;;;;;;;;;25.00;19.33;;;;;;;;5121666;27;44799;-85
2023/09/06 05:23:47;;;;;;;;;26.00;19.00;;;;;;;;5124621;27;44756;-90
2023/09/06 05:26:13;;;;;;;;;22.33;21.33;;;;;;;;5123060;27;46205;-86
2023/09/06 05:28:42;;;;;;;;;28.00;19.33;;;;;;;;5139648;27;45599;-84
2023/09/06 05:31:10;;;;;;;;;19.67;16.33;;;;;;;;5139146;27;44755;-86
2023/09/06 05:33:36;;;;;;;;;27.00;21.33;;;;;;;;5141371;27;44942;-85
2023/09/06 05:36:03;;;;;;;;;22.00;19.67;;;;;;;;5144488;22;45548;-78
2023/09/06 05:38:28;;;;;;;;;20.00;19.00;;;;;;;;5114424;27;45587;-77
2023/09/06 05:40:53;;;;;;;;;19.67;17.00;;;;;;;;5114574;27;45632;-79
2023/09/06 05:43:18;;;;;;;;;14.67;14.67;;;;;;;;5114152;27;45685;-75
2023/09/06 05:45:44;;;;;;;;;15.67;13.67;;;;;;;;5108826;27;45616;-74
2023/09/06 05:48:09;;;;;;;;;13.33;13.00;;;;;;;;5109368;27;45427;-75
2023/09/06 05:50:35;;;;;;;;;14.00;11.00;;;;;;;;5084745;27;45415;-73
2023/09/06 05:53:00;;;;;;;;;16.75;14.50;;;;;;;;5114312;27;45532;-72
2023/09/06 05:55:25;;;;;;;;;13.33;11.33;;;;;;;;5105970;27;45354;-72
2023/09/06 05:57:50;;;;;;;;;16.00;13.50;;;;;;;;5111632;27;45390;-73
2023/09/06 06:03:23;;;;;;;;;15.00;12.00;;;;;;;;5104655;27;45675;-72
2023/09/06 06:05:49;;;;;;;;;15.67;13.00;;;;;;;;5086316;27;47197;-73
2023/09/06 06:08:14;;;;;;;;;10.67;10.67;;;;;;;;5113938;27;46351;-72
2023/09/06 06:10:40;;;;;;;;;14.00;14.00;;;;;;;;5113253;27;45552;-74
2023/09/06 06:13:11;;;;;;;;;14.33;14.33;;;;;;;;5113767;27;45455;-75
2023/09/06 06:15:37;;;;;;;;;15.00;13.00;;;;;;;;5110519;27;45746;-75
2023/09/06 06:18:05;;;;;;;;;13.00;12.00;;;;;;;;5091040;27;47869;-77
2023/09/06 06:20:31;;;;;;;;;14.67;11.33;;;;;;;;5099681;27;45408;-75
2023/09/06 06:22:57;;;;;;;;;11.75;11.75;;;;;;;;5091132;27;45431;-75
2023/09/06 06:25:23;;;;;;;;;10.75;7.75;;;;;;;;5099672;27;45432;-74
2023/09/06 06:27:51;;;;;;;;;12.50;11.00;;;;;;;;5090169;27;47825;-75
2023/09/06 06:30:17;;;;;;;;;13.75;12.00;;;;;;;;5091984;27;46807;-75
2023/09/06 06:32:42;;;;;;;;;11.33;11.33;;;;;;;;5111171;27;45243;-73
2023/09/06 06:35:09;;;;;;;;;9.75;9.75;;;;;;;;5105209;27;45529;-74
2023/09/06 06:37:37;;;;;;;;;14.00;13.33;;;;;;;;5102419;27;46839;-72
2023/09/06 06:40:05;;;;;;;;;12.33;12.33;;;;;;;;5106054;27;45368;-74
2023/09/06 06:42:38;;;;;;;;;15.67;13.33;;;;;;;;5103418;27;45731;-73
2023/09/06 06:45:07;;;;;;;;;17.33;12.67;;;;;;;;5088373;27;46607;-73
2023/09/06 06:47:36;;;;;;;;;14.33;13.67;;;;;;;;5116133;27;46630;-76
2023/09/06 06:50:05;;;;;;;;;10.25;10.25;;;;;;;;5097050;27;46053;-75
2023/09/06 06:52:36;;;;;;;;;16.67;12.00;;;;;;;;5106592;27;45772;-73
2023/09/06 06:55:01;;;;;;;;;12.00;12.00;;;;;;;;5109484;27;45442;-72
2023/09/06 06:57:27;;;;;;;;;12.75;12.25;;;;;;;;5105561;27;46222;-76
2023/09/06 06:59:52;;;;;;;;;13.50;13.50;;;;;;;;5102424;27;45257;-73
2023/09/06 07:02:21;;;;;;;;;11.25;11.25;;;;;;;;5091648;27;45819;-72
2023/09/06 07:04:47;;;;;;;;;10.50;8.75;;;;;;;;5092486;27;46436;-72
2023/09/06 07:07:12;;;;;;;;;13.75;11.25;;;;;;;;5113297;27;45312;-73
2023/09/06 07:09:38;;;;;;;;;14.25;11.00;;;;;;;;5097181;27;45675;-71
2023/09/06 07:12:04;;;;;;;;;12.75;9.25;;;;;;;;5095441;27;45714;-72
2023/09/06 07:14:29;;;;;;;;;11.75;9.50;;;;;;;;5097709;27;46007;-71
2023/09/06 07:16:54;;;;;;;;;15.75;12.50;;;;;;;;5114683;27;45395;-72
2023/09/06 07:19:20;;;;;;;;;12.25;10.25;;;;;;;;5107465;27;45416;-72
2023/09/06 07:21:46;;;;;;;;;11.50;8.25;;;;;;;;5094731;27;45394;-71
2023/09/06 07:24:13;;;;;;;;;8.50;8.50;;;;;;;;5115697;27;45474;-71
2023/09/06 07:26:38;;;;;;;;;15.50;11.50;;;;;;;;5087413;27;46927;-73
2023/09/06 07:29:03;;;;;;;;;13.00;13.00;;;;;;;;5112715;27;45433;-73
2023/09/06 07:31:28;;;;;;;;;13.25;10.50;;;;;;;;5094535;27;45384;-73
2023/09/06 07:33:54;;;;;;;;;8.50;8.50;;;;;;;;5105854;27;45463;-72
2023/09/06 07:36:19;;;;;;;;;10.50;9.50;;;;;;;;5109698;27;45842;-72
2023/09/06 07:38:44;;;;;;;;;12.25;11.75;;;;;;;;5108095;27;45468;-73
2023/09/06 07:41:11;;;;;;;;;13.75;11.50;;;;;;;;5102828;27;45364;-73
2023/09/06 07:43:37;;;;;;;;;9.25;9.25;;;;;;;;5102006;27;45594;-72
2023/09/06 07:46:03;;;;;;;;;12.00;10.00;;;;;;;;5088569;27;48216;-74
2023/09/06 07:48:29;;;;;;;;;10.00;10.00;;;;;;;;5097020;27;45537;-73
2023/09/06 07:50:55;;;;;;;;;12.75;10.00;;;;;;;;5099874;27;45611;-72
2023/09/06 07:53:20;;;;;;;;;11.75;10.00;;;;;;;;5100067;27;46108;-72
2023/09/06 07:55:46;;;;;;;;;12.50;10.75;;;;;;;;5091524;27;46044;-73
2023/09/06 07:58:12;;;;;;;;;4.50;4.50;;;;;;;;5082594;27;45494;-73
2023/09/06 08:00:37;;;;;;;;;9.00;7.75;;;;;;;;5086947;27;45854;-75
2023/09/06 08:03:02;;;;;;;;;12.50;10.00;;;;;;;;5108509;27;45528;-74
2023/09/06 08:05:28;;;;;;;;;15.50;11.50;;;;;;;;5111132;27;45476;-71
2023/09/06 08:07:53;;;;;;;;;10.00;10.00;;;;;;;;5087356;27;45350;-73
2023/09/06 08:10:18;;;;;;;;;12.75;10.75;;;;;;;;5092508;27;45358;-74
2023/09/06 08:12:43;;;;;;;;;12.75;10.25;;;;;;;;5115226;27;45410;-73
2023/09/06 08:15:09;;;;;;;;;9.75;8.00;;;;;;;;5112144;27;47358;-73
2023/09/06 08:17:34;;;;;;;;;13.00;11.00;;;;;;;;5106536;27;46370;-71
2023/09/06 08:19:59;;;;;;;;;13.25;11.50;;;;;;;;5091190;27;45360;-73
2023/09/06 08:22:25;;;;;;;;;9.50;9.50;;;;;;;;5091861;27;45366;-74
2023/09/06 08:24:50;;;;;;;;;11.00;9.75;;;;;;;;5109729;27;45726;-74
2023/09/06 08:27:15;;;;;;;;;11.00;10.75;;;;;;;;5112118;27;45430;-73
2023/09/06 08:29:41;;;;;;;;;9.00;9.00;;;;;;;;5101925;27;45623;-73
2023/09/06 08:32:08;;;;;;;;;11.75;9.75;;;;;;;;5109182;27;45681;-71
2023/09/06 08:34:33;;;;;;;;;14.00;11.00;;;;;;;;5111732;27;46297;-72
2023/09/06 08:36:58;;;;;;;;;10.25;8.00;;;;;;;;5111401;27;45448;-71
2023/09/06 08:39:24;;;;;;;;;48.00;40.33;;;;;;;;5112635;27;45367;-74
2023/09/06 08:41:49;;;;;;;;;19.33;19.33;;;;;;;;5101832;27;45682;-72
2023/09/06 08:44:17;;;;;;;;;14.75;11.50;;;;;;;;5105092;27;46257;-73
2023/09/06 08:46:43;;;;;;;;;16.00;11.25;;;;;;;;5105774;27;45748;-72
2023/09/06 08:49:31;;;;;;;;;17.75;10.50;;;;;;;;5095351;27;45387;-73
2023/09/06 08:51:58;;;;;;;;;15.50;12.25;;;;;;;;5070330;27;45875;-71
2023/09/06 08:54:24;;;;;;;;;13.50;11.75;;;;;;;;5106575;27;46674;-73
2023/09/06 08:56:53;;;;;;;;;11.00;11.00;;;;;;;;5073038;27;47078;-71
2023/09/06 08:59:21;;;;;;;;;11.75;9.00;;;;;;;;5109347;27;45720;-73
2023/09/06 09:01:47;;;;;;;;;10.75;9.75;;;;;;;;5078156;27;47229;-70
2023/09/06 09:04:12;;;;;;;;;13.75;9.25;;;;;;;;5101895;27;45746;-73
2023/09/06 09:06:43;;;;;;;;;14.25;7.50;;;;;;;;5106108;27;45692;-72
2023/09/06 09:09:13;;;;;;;;;11.75;10.00;;;;;;;;5092163;27;45474;-72
2023/09/06 09:11:42;;;;;;;;;17.50;10.50;;;;;;;;5106003;27;45540;-71
2023/09/06 09:14:17;;;;;;;;;15.00;10.25;;;;;;;;5112262;27;46022;-74
2023/09/06 09:16:42;;;;;;;;;12.25;9.75;;;;;;;;5112916;27;45654;-73
2023/09/06 09:19:09;;;;;;;;;12.25;10.25;;;;;;;;5099370;27;45426;-72
2023/09/06 09:21:37;;;;;;;;;11.25;8.75;;;;;;;;5097580;27;46648;-71
2023/09/06 09:24:04;;;;;;;;;7.25;7.00;;;;;;;;5100241;27;45384;-75
2023/09/06 09:26:32;;;;;;;;;11.25;9.25;;;;;;;;5098826;27;45928;-71
2023/09/06 09:29:01;;;;;;;;;7.75;6.25;;;;;;;;5100124;27;45763;-72
2023/09/06 09:31:27;;;;;;;;;8.25;7.50;;;;;;;;5102961;27;45782;-72
2023/09/06 09:33:52;;;;;;;;;12.50;9.75;;;;;;;;5080429;27;46945;-70
2023/09/06 09:36:18;;;;;;;;;10.25;10.25;;;;;;;;5109872;27;45771;-70
2023/09/06 09:38:50;;;;;;;;;10.00;9.00;;;;;;;;5113558;27;45417;-70
2023/09/06 09:41:15;;;;;;;;;13.50;9.50;;;;;;;;5113074;27;45585;-73
2023/09/06 09:43:40;;;;;;;;;10.75;8.75;;;;;;;;5106507;27;45713;-71
2023/09/06 09:46:07;;;;;;;;;12.75;8.75;;;;;;;;5104492;27;45659;-72
2023/09/06 09:48:32;;;;;;;;;8.00;8.00;;;;;;;;5104092;27;45656;-72
2023/09/06 09:51:04;;;;;;;;;8.00;7.00;;;;;;;;5098697;27;45727;-71
2023/09/06 09:53:31;;;;;;;;;10.00;9.00;;;;;;;;5084559;27;48096;-70
2023/09/06 09:55:58;;;;;;;;;8.00;7.25;;;;;;;;5100807;27;45605;-72
2023/09/06 09:58:24;;;;;;;;;7.00;7.00;;;;;;;;5103761;27;45710;-71
2023/09/06 10:00:50;;;;;;;;;7.00;7.00;;;;;;;;5107308;27;45818;-71
2023/09/06 10:03:16;;;;;;;;;13.25;10.25;;;;;;;;5108307;27;46199;-71
2023/09/06 10:05:42;;;;;;;;;10.75;6.75;;;;;;;;5112309;27;45800;-71
2023/09/06 10:08:08;;;;;;;;;9.25;9.00;;;;;;;;5103982;27;45375;-70
2023/09/06 10:10:35;;;;;;;;;12.75;10.50;;;;;;;;5092951;27;45566;-68
2023/09/06 10:13:04;;;;;;;;;8.25;8.00;;;;;;;;5107427;27;46205;-73
2023/09/06 10:15:30;;;;;;;;;10.25;8.25;;;;;;;;5079153;27;45893;-70
2023/09/06 10:17:55;;;;;;;;;31.33;27.33;;;;;;;;5102433;27;45270;-71
2023/09/06 10:20:23;;;;;;;;;9.50;9.50;;;;;;;;5101786;27;45817;-71
2023/09/06 10:22:49;;;;;;;;;10.75;9.75;;;;;;;;5078309;27;47935;-70
2023/09/06 10:25:15;;;;;;;;;10.00;9.50;;;;;;;;5112831;27;45747;-70
2023/09/06 10:27:46;;;;;;;;;9.00;8.25;;;;;;;;5104697;27;45774;-71
2023/09/06 10:30:17;;;;;;;;;11.00;11.00;;;;;;;;5101281;27;45560;-71
2023/09/06 10:32:43;;;;;;;;;10.50;10.50;;;;;;;;5087044;27;45778;-70
2023/09/06 10:35:24;;;;;;;;;11.75;8.25;;;;;;;;5104516;27;45637;-69
2023/09/06 10:38:04;;;;;;;;;9.75;8.50;;;;;;;;5109479;27;45529;-70
2023/09/06 10:40:47;;;;;;;;;10.25;10.25;;;;;;;;5111343;27;45943;-70
2023/09/06 10:43:13;;;;;;;;;11.75;9.75;;;;;;;;5101635;27;46032;-71
2023/09/06 10:45:40;;;;;;;;;10.25;8.75;;;;;;;;5101638;27;45849;-69
2023/09/06 10:48:09;;;;;;;;;10.75;10.00;;;;;;;;5089857;27;45629;-70
2023/09/06 10:50:36;;;;;;;;;10.25;8.25;;;;;;;;5083361;27;46565;-72
2023/09/06 10:53:02;;;;;;;;;11.25;9.50;;;;;;;;5111316;27;46109;-71
2023/09/06 10:55:29;;;;;;;;;8.00;7.25;;;;;;;;5110619;27;45763;-69
2023/09/06 10:58:02;;;;;;;;;10.25;8.25;;;;;;;;5093069;27;45460;-70
2023/09/06 11:00:31;;;;;;;;;8.00;8.00;;;;;;;;5111700;27;45478;-70
2023/09/06 11:03:06;;;;;;;;;10.25;9.75;;;;;;;;5095842;27;47335;-71
2023/09/06 11:06:07;;;;;;;;;11.50;9.50;;;;;;;;5090272;27;46734;-73
2023/09/06 11:08:33;;;;;;;;;10.00;10.00;;;;;;;;4996381;28;45855;-69
2023/09/06 11:11:07;;;;;;;;;8.00;8.00;;;;;;;;5080758;27;46262;-77
2023/09/06 11:13:33;;;;;;;;;6.75;5.50;;;;;;;;5107198;27;45720;-70
2023/09/06 11:16:03;;;;;;;;;14.00;9.75;;;;;;;;5110526;27;45768;-71
2023/09/06 11:18:28;;;;;;;;;11.25;10.50;;;;;;;;5115844;27;45368;-69
2023/09/06 11:20:59;;;;;;;;;8.50;8.50;;;;;;;;5114785;27;45675;-68
2023/09/06 11:23:24;;;;;;;;;12.00;12.00;;;;;;;;5109102;27;46154;-70
2023/09/06 11:26:02;;;;;;;;;12.00;12.00;;;;;;;;5093271;27;45253;-68
2023/09/06 11:28:33;;;;;;;;;9.75;9.75;;;;;;;;5107383;27;45353;-69
2023/09/06 11:31:00;;;;;;;;;12.00;10.50;;;;;;;;5116307;27;45763;-69
2023/09/06 11:33:31;;;;;;;;;10.50;9.50;;;;;;;;5115496;27;45399;-70
2023/09/06 11:35:58;;;;;;;;;8.50;7.25;;;;;;;;5107332;27;45525;-70
2023/09/06 11:38:28;;;;;;;;;13.50;9.50;;;;;;;;5109142;27;45452;-71
2023/09/06 11:40:58;;;;;;;;;8.00;6.75;;;;;;;;5097507;27;45909;-70
2023/09/06 11:43:24;;;;;;;;;9.00;9.00;;;;;;;;5115768;27;45784;-72
2023/09/06 11:45:53;;;;;;;;;9.50;9.50;;;;;;;;5115882;27;45399;-72
2023/09/06 11:48:25;;;;;;;;;5.50;4.25;;;;;;;;5096534;27;45830;-71
2023/09/06 11:50:56;;;;;;;;;18.00;13.00;;;;;;;;5097603;27;46158;-72
2023/09/06 11:53:21;;;;;;;;;13.00;13.00;;;;;;;;5115948;27;45905;-71
2023/09/06 11:55:49;;;;;;;;;9.00;9.00;;;;;;;;5076915;27;45567;-71
2023/09/06 11:58:17;;;;;;;;;10.25;9.25;;;;;;;;5107869;27;45309;-70
2023/09/06 12:00:46;;;;;;;;;9.25;8.00;;;;;;;;5086508;27;45677;-72
2023/09/06 12:03:16;;;;;;;;;10.00;10.00;;;;;;;;5114227;27;46311;-72
2023/09/06 12:05:46;;;;;;;;;8.50;8.50;;;;;;;;5090932;27;45758;-70
2023/09/06 12:08:20;;;;;;;;;10.75;9.00;;;;;;;;5103610;27;45415;-72
2023/09/06 12:10:54;;;;;;;;;7.25;7.25;;;;;;;;5106178;27;45442;-72
2023/09/06 12:13:29;;;;;;;;;7.75;7.25;;;;;;;;5112017;27;45863;-70
2023/09/06 12:15:58;;;;;;;;;7.25;6.25;;;;;;;;5100855;27;45444;-73
2023/09/06 12:18:30;;;;;;;;;11.00;11.00;;;;;;;;5096035;27;45501;-70
2023/09/06 12:20:56;;;;;;;;;8.50;8.25;;;;;;;;5113834;27;45710;-71
2023/09/06 12:23:22;;;;;;;;;7.75;7.75;;;;;;;;5102852;27;45857;-71
2023/09/06 12:25:47;;;;;;;;;10.75;10.75;;;;;;;;5113352;27;45746;-72
2023/09/06 12:28:13;;;;;;;;;7.75;6.50;;;;;;;;5203125;22;46071;-79
2023/09/06 12:30:38;;;;;;;;;8.00;8.00;;;;;;;;5072602;27;45636;-79
2023/09/06 12:33:03;;;;;;;;;7.25;7.25;;;;;;;;5073006;27;45807;-78
2023/09/06 12:35:29;;;;;;;;;7.75;6.50;;;;;;;;5056867;27;45475;-77
2023/09/06 12:37:57;;;;;;;;;8.00;8.00;;;;;;;;5080497;27;45872;-78
2023/09/06 12:40:27;;;;;;;;;7.75;7.75;;;;;;;;5055690;27;46330;-79
2023/09/06 12:42:52;;;;;;;;;10.00;9.50;;;;;;;;5084684;27;46358;-77
2023/09/06 12:45:28;;;;;;;;;11.00;8.00;;;;;;;;5073214;27;45819;-78
2023/09/06 12:47:57;;;;;;;;;9.25;9.25;;;;;;;;5047172;28;45702;-80
2023/09/06 12:50:23;;;;;;;;;7.75;6.25;;;;;;;;5078293;27;46500;-79
2023/09/06 12:52:49;;;;;;;;;6.25;6.25;;;;;;;;5059341;28;47555;-79
2023/09/06 12:55:15;;;;;;;;;10.00;9.00;;;;;;;;5073503;27;45528;-78
2023/09/06 12:57:40;;;;;;;;;9.50;9.00;;;;;;;;5071085;27;45574;-77
2023/09/06 13:00:07;;;;;;;;;9.00;7.50;;;;;;;;5070941;27;45647;-77
2023/09/06 13:02:33;;;;;;;;;11.00;11.00;;;;;;;;5072413;28;45529;-78
2023/09/06 13:04:59;;;;;;;;;11.00;9.25;;;;;;;;5071287;27;45412;-77
2023/09/06 13:07:24;;;;;;;;;8.25;8.25;;;;;;;;5055279;28;46452;-77
2023/09/06 13:09:50;;;;;;;;;7.25;7.25;;;;;;;;5071539;28;45733;-77
2023/09/06 13:12:15;;;;;;;;;9.00;7.00;;;;;;;;5059594;27;47159;-78
2023/09/06 13:14:40;;;;;;;;;10.25;9.50;;;;;;;;5075166;27;45550;-78
2023/09/06 13:17:05;;;;;;;;;7.00;7.00;;;;;;;;5054045;28;45446;-76
2023/09/06 13:19:31;;;;;;;;;10.75;8.25;;;;;;;;5072450;27;45492;-77
2023/09/06 13:21:56;;;;;;;;;10.75;9.25;;;;;;;;5076625;27;46175;-78
2023/09/06 13:24:22;;;;;;;;;12.50;9.25;;;;;;;;5063801;27;45610;-77
2023/09/06 13:26:49;;;;;;;;;9.25;9.25;;;;;;;;5064186;27;45614;-78
2023/09/06 13:29:15;;;;;;;;;9.00;8.00;;;;;;;;5065069;27;45568;-78
2023/09/06 13:31:40;;;;;;;;;11.00;10.00;;;;;;;;5072883;27;45583;-79
2023/09/06 13:34:05;;;;;;;;;9.50;9.00;;;;;;;;5088023;27;45376;-77
2023/09/06 13:36:35;;;;;;;;;11.50;11.50;;;;;;;;5072250;27;45839;-77
2023/09/06 13:39:01;;;;;;;;;9.50;8.75;;;;;;;;5057931;28;46141;-79
2023/09/06 13:41:26;;;;;;;;;9.00;7.75;;;;;;;;5076986;27;45471;-78
2023/09/06 13:43:51;;;;;;;;;8.00;8.00;;;;;;;;5054874;28;45584;-78
2023/09/06 13:46:16;;;;;;;;;7.75;7.75;;;;;;;;5079490;27;45341;-79
2023/09/06 13:48:42;;;;;;;;;10.25;9.00;;;;;;;;5053815;28;45252;-80
2023/09/06 13:51:07;;;;;;;;;7.00;7.00;;;;;;;;5063147;27;46880;-77
2023/09/06 13:53:33;;;;;;;;;8.75;8.75;;;;;;;;5054120;27;46897;-76
2023/09/06 13:55:58;;;;;;;;;8.25;8.00;;;;;;;;5088236;27;45759;-78
2023/09/06 13:58:23;;;;;;;;;11.50;7.75;;;;;;;;5069343;27;46141;-78
2023/09/06 14:00:55;;;;;;;;;12.25;8.50;;;;;;;;5085159;27;46256;-77
2023/09/06 14:03:22;;;;;;;;;10.00;9.00;;;;;;;;5079095;27;45463;-79
2023/09/06 14:05:49;;;;;;;;;8.00;8.00;;;;;;;;5074640;27;45431;-76
2023/09/06 14:08:14;;;;;;;;;8.75;8.75;;;;;;;;5069412;27;46109;-77
2023/09/06 14:10:39;;;;;;;;;8.25;7.25;;;;;;;;5050645;28;46937;-81
2023/09/06 14:13:04;;;;;;;;;18.00;14.00;;;;;;;;5081140;27;45786;-79
2023/09/06 14:15:30;;;;;;;;;9.25;9.25;;;;;;;;5071478;27;45344;-80
2023/09/06 14:17:55;;;;;;;;;13.25;10.50;;;;;;;;5071973;27;45881;-75
2023/09/06 14:20:20;;;;;;;;;9.25;8.25;;;;;;;;5049116;28;48567;-80
2023/09/06 14:22:46;;;;;;;;;10.25;8.25;;;;;;;;5072676;28;45729;-77
2023/09/06 14:25:11;;;;;;;;;10.00;9.00;;;;;;;;5055834;28;45362;-77
2023/09/06 14:27:37;;;;;;;;;9.25;9.00;;;;;;;;5072025;28;45687;-79